sensor_id;sensor_type;location;lat;lon;timestamp;pressure;altitude;pressure_sealevel;temperature;humidity
39405;BME280;25121;51.090;17.038;2023-03-19T00:00:27;100014.66;;;8.58;43.08
39405;BME280;25121;51.090;17.038;2023-03-19T00:01:54;100016.50;;;8.57;42.96
39405;BME280;25121;51.090;17.038;2023-03-19T00:03:25;100010.44;;;8.47;43.08
39405;BME280;25121;51.090;17.038;2023-03-19T00:04:52;100011.44;;;8.46;43.32
39405;BME280;25121;51.090;17.038;2023-03-19T00:06:14;100020.00;;;8.50;43.31
39405;BME280;25121;51.090;17.038;2023-03-19T00:07:40;100014.25;;;8.45;43.34
39405;BME280;25121;51.090;17.038;2023-03-19T00:09:03;100000.31;;;8.33;43.36
39405;BME280;25121;51.090;17.038;2023-03-19T00:10:37;99983.56;;;8.23;43.52
39405;BME280;25121;51.090;17.038;2023-03-19T00:12:06;100025.84;;;8.45;43.59
39405;BME280;25121;51.090;17.038;2023-03-19T00:13:31;100024.13;;;8.44;43.61
39405;BME280;25121;51.090;17.038;2023-03-19T00:14:53;100033.19;;;8.43;43.64
39405;BME280;25121;51.090;17.038;2023-03-19T00:16:59;99996.41;;;8.19;43.55
39405;BME280;25121;51.090;17.038;2023-03-19T00:18:21;100029.13;;;8.39;43.95
39405;BME280;25121;51.090;17.038;2023-03-19T00:19:49;100033.78;;;8.37;44.02
39405;BME280;25121;51.090;17.038;2023-03-19T00:21:27;100038.50;;;8.35;43.67
39405;BME280;25121;51.090;17.038;2023-03-19T00:22:50;100016.50;;;8.15;44.01
39405;BME280;25121;51.090;17.038;2023-03-19T00:24:14;100003.25;;;8.05;43.91
39405;BME280;25121;51.090;17.038;2023-03-19T00:25:37;100005.94;;;8.13;43.93
39405;BME280;25121;51.090;17.038;2023-03-19T00:26:59;100032.78;;;8.30;44.00
39405;BME280;25121;51.090;17.038;2023-03-19T00:28:23;100028.91;;;8.24;44.04
39405;BME280;25121;51.090;17.038;2023-03-19T00:29:49;100028.22;;;8.22;44.16
39405;BME280;25121;51.090;17.038;2023-03-19T00:31:14;100035.75;;;8.27;44.38
39405;BME280;25121;51.090;17.038;2023-03-19T00:32:44;100029.06;;;8.23;44.38
39405;BME280;25121;51.090;17.038;2023-03-19T00:34:07;100015.63;;;8.06;44.40
39405;BME280;25121;51.090;17.038;2023-03-19T00:35:30;100028.41;;;8.20;44.52
39405;BME280;25121;51.090;17.038;2023-03-19T00:36:53;100034.72;;;8.19;44.34
39405;BME280;25121;51.090;17.038;2023-03-19T00:38:16;100011.28;;;8.05;44.44
39405;BME280;25121;51.090;17.038;2023-03-19T00:39:37;100010.25;;;7.98;44.48
39405;BME280;25121;51.090;17.038;2023-03-19T00:41:03;100011.22;;;7.97;44.57
39405;BME280;25121;51.090;17.038;2023-03-19T00:42:31;100041.44;;;8.15;44.83
39405;BME280;25121;51.090;17.038;2023-03-19T00:43:55;100019.09;;;7.98;44.81
39405;BME280;25121;51.090;17.038;2023-03-19T00:45:30;100038.22;;;8.12;44.79
39405;BME280;25121;51.090;17.038;2023-03-19T00:47:05;100031.34;;;8.09;44.97
39405;BME280;25121;51.090;17.038;2023-03-19T00:48:27;100006.03;;;7.95;45.16
39405;BME280;25121;51.090;17.038;2023-03-19T00:49:49;99998.97;;;7.86;45.00
39405;BME280;25121;51.090;17.038;2023-03-19T00:51:13;99981.41;;;7.84;45.07
39405;BME280;25121;51.090;17.038;2023-03-19T00:52:40;100011.91;;;7.99;45.09
39405;BME280;25121;51.090;17.038;2023-03-19T00:54:03;100006.56;;;7.99;45.08
39405;BME280;25121;51.090;17.038;2023-03-19T00:55:24;100020.28;;;8.04;45.02
39405;BME280;25121;51.090;17.038;2023-03-19T00:56:47;99998.66;;;7.89;45.12
39405;BME280;25121;51.090;17.038;2023-03-19T00:58:13;99998.66;;;7.89;45.34
39405;BME280;25121;51.090;17.038;2023-03-19T00:59:35;100014.44;;;8.01;45.30
39405;BME280;25121;51.090;17.038;2023-03-19T01:00:57;100005.69;;;7.90;45.27
39405;BME280;25121;51.090;17.038;2023-03-19T01:02:21;99986.25;;;7.80;45.38
39405;BME280;25121;51.090;17.038;2023-03-19T01:03:45;100015.75;;;7.96;45.16
39405;BME280;25121;51.090;17.038;2023-03-19T01:05:14;100009.88;;;7.93;45.43
39405;BME280;25121;51.090;17.038;2023-03-19T01:06:37;100013.38;;;7.93;45.37
39405;BME280;25121;51.090;17.038;2023-03-19T01:08:01;99995.25;;;7.79;45.22
39405;BME280;25121;51.090;17.038;2023-03-19T01:09:23;99993.25;;;7.81;45.30
39405;BME280;25121;51.090;17.038;2023-03-19T01:10:45;100002.16;;;7.90;45.27
39405;BME280;25121;51.090;17.038;2023-03-19T01:12:07;99974.66;;;7.71;45.36
39405;BME280;25121;51.090;17.038;2023-03-19T01:13:30;99994.28;;;7.80;45.47
39405;BME280;25121;51.090;17.038;2023-03-19T01:14:58;99982.69;;;7.71;45.64
39405;BME280;25121;51.090;17.038;2023-03-19T01:16:20;100006.50;;;7.83;45.51
39405;BME280;25121;51.090;17.038;2023-03-19T01:17:43;99973.63;;;7.64;45.60
39405;BME280;25121;51.090;17.038;2023-03-19T01:19:05;99991.53;;;7.72;45.48
39405;BME280;25121;51.090;17.038;2023-03-19T01:20:29;99993.03;;;7.66;45.50
39405;BME280;25121;51.090;17.038;2023-03-19T01:21:52;99981.63;;;7.64;45.49
39405;BME280;25121;51.090;17.038;2023-03-19T01:23:17;99988.00;;;7.63;45.48
39405;BME280;25121;51.090;17.038;2023-03-19T01:24:41;99984.09;;;7.58;45.68
39405;BME280;25121;51.090;17.038;2023-03-19T01:26:03;99972.03;;;7.45;45.66
39405;BME280;25121;51.090;17.038;2023-03-19T01:27:25;99972.84;;;7.46;45.69
39405;BME280;25121;51.090;17.038;2023-03-19T01:28:46;100015.09;;;7.68;45.84
39405;BME280;25121;51.090;17.038;2023-03-19T01:30:12;99990.47;;;7.57;45.83
39405;BME280;25121;51.090;17.038;2023-03-19T01:31:53;100008.56;;;7.63;45.86
39405;BME280;25121;51.090;17.038;2023-03-19T01:33:31;99989.41;;;7.49;45.85
39405;BME280;25121;51.090;17.038;2023-03-19T01:35:01;99971.81;;;7.39;45.74
39405;BME280;25121;51.090;17.038;2023-03-19T01:36:23;100002.81;;;7.58;45.90
39405;BME280;25121;51.090;17.038;2023-03-19T01:37:53;99953.66;;;7.24;46.08
39405;BME280;25121;51.090;17.038;2023-03-19T01:39:25;100005.81;;;7.54;45.97
39405;BME280;25121;51.090;17.038;2023-03-19T01:40:53;99982.31;;;7.40;46.17
39405;BME280;25121;51.090;17.038;2023-03-19T01:42:22;99989.03;;;7.44;46.05
39405;BME280;25121;51.090;17.038;2023-03-19T01:44:31;99953.44;;;7.18;46.06
39405;BME280;25121;51.090;17.038;2023-03-19T01:46:39;100011.25;;;7.45;46.17
39405;BME280;25121;51.090;17.038;2023-03-19T01:48:16;99970.34;;;7.18;46.31
39405;BME280;25121;51.090;17.038;2023-03-19T01:49:55;100012.41;;;7.42;46.25
39405;BME280;25121;51.090;17.038;2023-03-19T01:51:21;100003.34;;;7.35;46.28
39405;BME280;25121;51.090;17.038;2023-03-19T01:52:46;100001.81;;;7.32;46.30
39405;BME280;25121;51.090;17.038;2023-03-19T01:54:24;99988.19;;;7.18;46.27
39405;BME280;25121;51.090;17.038;2023-03-19T01:56:10;99970.56;;;7.07;46.43
39405;BME280;25121;51.090;17.038;2023-03-19T01:57:46;100016.06;;;7.33;46.34
39405;BME280;25121;51.090;17.038;2023-03-19T01:59:37;99967.75;;;7.08;46.37
39405;BME280;25121;51.090;17.038;2023-03-19T02:01:15;100008.50;;;7.28;46.37
39405;BME280;25121;51.090;17.038;2023-03-19T02:02:41;100012.16;;;7.27;46.64
39405;BME280;25121;51.090;17.038;2023-03-19T02:04:24;99989.66;;;7.12;46.54
39405;BME280;25121;51.090;17.038;2023-03-19T02:05:50;99963.47;;;6.98;46.75
39405;BME280;25121;51.090;17.038;2023-03-19T02:07:18;99966.16;;;6.98;46.56
39405;BME280;25121;51.090;17.038;2023-03-19T02:08:41;99961.97;;;6.95;46.70
39405;BME280;25121;51.090;17.038;2023-03-19T02:10:09;99997.84;;;7.10;46.64
39405;BME280;25121;51.090;17.038;2023-03-19T02:11:35;99972.03;;;7.01;46.73
39405;BME280;25121;51.090;17.038;2023-03-19T02:13:02;100001.72;;;7.16;46.80
39405;BME280;25121;51.090;17.038;2023-03-19T02:14:23;100022.84;;;7.27;46.71
39405;BME280;25121;51.090;17.038;2023-03-19T02:15:49;100027.34;;;7.27;46.71
39405;BME280;25121;51.090;17.038;2023-03-19T02:17:12;99997.16;;;7.08;46.73
39405;BME280;25121;51.090;17.038;2023-03-19T02:18:35;99986.59;;;7.07;46.82
39405;BME280;25121;51.090;17.038;2023-03-19T02:20:02;99981.03;;;7.00;46.78
39405;BME280;25121;51.090;17.038;2023-03-19T02:21:28;100008.72;;;7.17;46.78
39405;BME280;25121;51.090;17.038;2023-03-19T02:22:57;99987.25;;;7.01;46.69
39405;BME280;25121;51.090;17.038;2023-03-19T02:24:29;100020.13;;;7.19;46.97
39405;BME280;25121;51.090;17.038;2023-03-19T02:26:08;100017.66;;;7.26;46.97
39405;BME280;25121;51.090;17.038;2023-03-19T02:27:32;100013.25;;;7.17;46.86
39405;BME280;25121;51.090;17.038;2023-03-19T02:28:54;100023.84;;;7.26;46.96
39405;BME280;25121;51.090;17.038;2023-03-19T02:30:26;99993.94;;;7.05;46.97
39405;BME280;25121;51.090;17.038;2023-03-19T02:31:51;99988.91;;;7.02;47.14
39405;BME280;25121;51.090;17.038;2023-03-19T02:33:17;100025.97;;;7.23;46.96
39405;BME280;25121;51.090;17.038;2023-03-19T02:34:42;99998.00;;;7.09;47.00
39405;BME280;25121;51.090;17.038;2023-03-19T02:36:06;100028.34;;;7.26;47.01
39405;BME280;25121;51.090;17.038;2023-03-19T02:37:38;100030.84;;;7.27;46.88
39405;BME280;25121;51.090;17.038;2023-03-19T02:39:06;99977.38;;;7.01;46.85
39405;BME280;25121;51.090;17.038;2023-03-19T02:40:30;100027.34;;;7.27;46.79
39405;BME280;25121;51.090;17.038;2023-03-19T02:41:57;100009.41;;;7.19;46.57
39405;BME280;25121;51.090;17.038;2023-03-19T02:43:20;100012.47;;;7.24;46.93
39405;BME280;25121;51.090;17.038;2023-03-19T02:44:45;100018.13;;;7.21;47.06
39405;BME280;25121;51.090;17.038;2023-03-19T02:46:12;100030.03;;;7.27;46.92
39405;BME280;25121;51.090;17.038;2023-03-19T02:47:34;100011.72;;;7.14;46.98
39405;BME280;25121;51.090;17.038;2023-03-19T02:48:58;100006.84;;;7.09;46.94
39405;BME280;25121;51.090;17.038;2023-03-19T02:50:20;100036.53;;;7.24;46.78
39405;BME280;25121;51.090;17.038;2023-03-19T02:51:42;100023.09;;;7.16;46.73
39405;BME280;25121;51.090;17.038;2023-03-19T02:53:05;100018.81;;;7.23;46.87
39405;BME280;25121;51.090;17.038;2023-03-19T02:54:28;100008.91;;;7.16;46.72
39405;BME280;25121;51.090;17.038;2023-03-19T02:55:50;100031.03;;;7.26;46.98
39405;BME280;25121;51.090;17.038;2023-03-19T02:57:20;99990.88;;;7.00;47.00
39405;BME280;25121;51.090;17.038;2023-03-19T02:58:42;100027.66;;;7.24;47.05
39405;BME280;25121;51.090;17.038;2023-03-19T03:00:09;99981.53;;;6.96;47.06
39405;BME280;25121;51.090;17.038;2023-03-19T03:01:33;100003.34;;;7.09;47.07
39405;BME280;25121;51.090;17.038;2023-03-19T03:02:59;99987.53;;;6.98;47.11
39405;BME280;25121;51.090;17.038;2023-03-19T03:04:22;100004.31;;;7.08;46.73
39405;BME280;25121;51.090;17.038;2023-03-19T03:05:44;100032.84;;;7.25;47.02
39405;BME280;25121;51.090;17.038;2023-03-19T03:07:07;100030.03;;;7.27;47.18
39405;BME280;25121;51.090;17.038;2023-03-19T03:08:28;100039.75;;;7.28;47.06
39405;BME280;25121;51.090;17.038;2023-03-19T03:09:50;100032.84;;;7.25;46.75
39405;BME280;25121;51.090;17.038;2023-03-19T03:11:17;100011.03;;;7.12;47.10
39405;BME280;25121;51.090;17.038;2023-03-19T03:12:45;100000.66;;;7.09;47.10
39405;BME280;25121;51.090;17.038;2023-03-19T03:14:07;99996.59;;;7.05;47.15
39405;BME280;25121;51.090;17.038;2023-03-19T03:15:29;100000.50;;;7.10;46.99
39405;BME280;25121;51.090;17.038;2023-03-19T03:16:51;100025.81;;;7.24;46.96
39405;BME280;25121;51.090;17.038;2023-03-19T03:18:12;100028.13;;;7.19;46.92
39405;BME280;25121;51.090;17.038;2023-03-19T03:19:35;100017.75;;;7.16;46.94
39405;BME280;25121;51.090;17.038;2023-03-19T03:21:09;100002.72;;;6.97;47.09
39405;BME280;25121;51.090;17.038;2023-03-19T03:22:40;100027.75;;;7.14;47.22
39405;BME280;25121;51.090;17.038;2023-03-19T03:24:03;99992.66;;;6.91;47.15
39405;BME280;25121;51.090;17.038;2023-03-19T03:25:24;100016.16;;;7.05;47.30
39405;BME280;25121;51.090;17.038;2023-03-19T03:26:48;99993.13;;;6.86;47.47
39405;BME280;25121;51.090;17.038;2023-03-19T03:28:12;100034.25;;;7.11;47.55
39405;BME280;25121;51.090;17.038;2023-03-19T03:29:35;100009.78;;;6.98;47.39
39405;BME280;25121;51.090;17.038;2023-03-19T03:30:58;100035.91;;;7.12;47.45
39405;BME280;25121;51.090;17.038;2023-03-19T03:32:21;99990.28;;;6.88;47.47
39405;BME280;25121;51.090;17.038;2023-03-19T03:33:43;100016.78;;;6.99;47.63
39405;BME280;25121;51.090;17.038;2023-03-19T03:35:06;100011.06;;;6.94;47.59
39405;BME280;25121;51.090;17.038;2023-03-19T03:36:29;100023.78;;;7.00;47.45
39405;BME280;25121;51.090;17.038;2023-03-19T03:37:50;100042.41;;;7.10;47.59
39405;BME280;25121;51.090;17.038;2023-03-19T03:39:13;100040.75;;;7.09;47.46
39405;BME280;25121;51.090;17.038;2023-03-19T03:40:34;100041.56;;;7.09;47.61
39405;BME280;25121;51.090;17.038;2023-03-19T03:41:57;100042.59;;;7.08;47.18
39405;BME280;25121;51.090;17.038;2023-03-19T03:43:20;99996.13;;;6.83;47.40
39405;BME280;25121;51.090;17.038;2023-03-19T03:44:43;100012.66;;;6.87;47.63
39405;BME280;25121;51.090;17.038;2023-03-19T03:46:06;100043.72;;;7.06;47.58
39405;BME280;25121;51.090;17.038;2023-03-19T03:47:29;100048.91;;;7.07;47.73
39405;BME280;25121;51.090;17.038;2023-03-19T03:48:52;100016.84;;;6.89;47.55
39405;BME280;25121;51.090;17.038;2023-03-19T03:50:17;100038.00;;;7.01;47.81
39405;BME280;25121;51.090;17.038;2023-03-19T03:51:42;100035.34;;;7.01;47.48
39405;BME280;25121;51.090;17.038;2023-03-19T03:53:04;100000.06;;;6.79;47.93
39405;BME280;25121;51.090;17.038;2023-03-19T03:54:26;100007.63;;;6.84;47.62
39405;BME280;25121;51.090;17.038;2023-03-19T03:55:51;100022.44;;;6.96;47.87
39405;BME280;25121;51.090;17.038;2023-03-19T03:57:16;100020.91;;;6.94;47.82
39405;BME280;25121;51.090;17.038;2023-03-19T03:58:40;100006.47;;;6.86;47.65
39405;BME280;25121;51.090;17.038;2023-03-19T04:00:03;99999.75;;;6.82;47.82
39405;BME280;25121;51.090;17.038;2023-03-19T04:01:32;100021.97;;;7.01;47.80
39405;BME280;25121;51.090;17.038;2023-03-19T04:02:55;100003.44;;;6.81;47.82
39405;BME280;25121;51.090;17.038;2023-03-19T04:04:19;100032.94;;;6.98;47.86
39405;BME280;25121;51.090;17.038;2023-03-19T04:05:40;100036.47;;;6.98;47.78
39405;BME280;25121;51.090;17.038;2023-03-19T04:07:06;100032.28;;;6.96;47.80
39405;BME280;25121;51.090;17.038;2023-03-19T04:08:39;100012.28;;;6.82;47.87
39405;BME280;25121;51.090;17.038;2023-03-19T04:10:03;99994.81;;;6.69;47.73
39405;BME280;25121;51.090;17.038;2023-03-19T04:11:27;99994.44;;;6.64;47.94
39405;BME280;25121;51.090;17.038;2023-03-19T04:12:49;100040.59;;;6.93;48.01
39405;BME280;25121;51.090;17.038;2023-03-19T04:14:13;100017.94;;;6.79;48.15
39405;BME280;25121;51.090;17.038;2023-03-19T04:15:34;100006.88;;;6.74;48.11
39405;BME280;25121;51.090;17.038;2023-03-19T04:16:59;99991.22;;;6.61;48.38
39405;BME280;25121;51.090;17.038;2023-03-19T04:18:22;100034.88;;;6.87;48.20
39405;BME280;25121;51.090;17.038;2023-03-19T04:19:45;99998.94;;;6.64;48.19
39405;BME280;25121;51.090;17.038;2023-03-19T04:21:07;100039.88;;;6.90;48.30
39405;BME280;25121;51.090;17.038;2023-03-19T04:22:32;99997.63;;;6.68;48.30
39405;BME280;25121;51.090;17.038;2023-03-19T04:23:54;100034.56;;;6.90;48.26
39405;BME280;25121;51.090;17.038;2023-03-19T04:25:16;100012.03;;;6.75;48.38
39405;BME280;25121;51.090;17.038;2023-03-19T04:26:38;100033.56;;;6.92;48.56
39405;BME280;25121;51.090;17.038;2023-03-19T04:28:03;100007.84;;;6.73;48.47
39405;BME280;25121;51.090;17.038;2023-03-19T04:29:34;100033.88;;;6.88;48.61
39405;BME280;25121;51.090;17.038;2023-03-19T04:31:00;100023.97;;;6.81;48.51
39405;BME280;25121;51.090;17.038;2023-03-19T04:32:24;100019.78;;;6.78;48.51
39405;BME280;25121;51.090;17.038;2023-03-19T04:33:47;100022.13;;;6.81;48.35
39405;BME280;25121;51.090;17.038;2023-03-19T04:35:13;100032.88;;;6.89;48.55
39405;BME280;25121;51.090;17.038;2023-03-19T04:36:35;100043.44;;;6.91;48.56
39405;BME280;25121;51.090;17.038;2023-03-19T04:37:58;100033.56;;;6.92;48.52
39405;BME280;25121;51.090;17.038;2023-03-19T04:39:21;99984.06;;;6.61;48.62
39405;BME280;25121;51.090;17.038;2023-03-19T04:40:43;99984.06;;;6.61;48.46
39405;BME280;25121;51.090;17.038;2023-03-19T04:42:09;100001.81;;;6.71;48.66
39405;BME280;25121;51.090;17.038;2023-03-19T04:43:43;100005.03;;;6.74;48.67
39405;BME280;25121;51.090;17.038;2023-03-19T04:45:08;100022.97;;;6.82;48.71
39405;BME280;25121;51.090;17.038;2023-03-19T04:46:31;100027.16;;;6.84;48.61
39405;BME280;25121;51.090;17.038;2023-03-19T04:47:54;100024.50;;;6.84;48.68
39405;BME280;25121;51.090;17.038;2023-03-19T04:49:18;100031.66;;;6.84;48.73
39405;BME280;25121;51.090;17.038;2023-03-19T04:50:43;100019.78;;;6.78;48.39
39405;BME280;25121;51.090;17.038;2023-03-19T04:52:05;100001.91;;;6.61;48.67
39405;BME280;25121;51.090;17.038;2023-03-19T04:53:26;100037.31;;;6.81;48.56
39405;BME280;25121;51.090;17.038;2023-03-19T04:54:49;100019.22;;;6.75;48.67
39405;BME280;25121;51.090;17.038;2023-03-19T04:56:10;100029.44;;;6.79;48.66
39405;BME280;25121;51.090;17.038;2023-03-19T04:57:36;100013.06;;;6.74;48.63
39405;BME280;25121;51.090;17.038;2023-03-19T04:58:58;100014.72;;;6.75;48.56
39405;BME280;25121;51.090;17.038;2023-03-19T05:00:22;99994.03;;;6.59;48.79
39405;BME280;25121;51.090;17.038;2023-03-19T05:01:47;99972.91;;;6.48;48.82
39405;BME280;25121;51.090;17.038;2023-03-19T05:03:14;99970.53;;;6.45;48.55
39405;BME280;25121;51.090;17.038;2023-03-19T05:04:37;99995.44;;;6.63;48.69
39405;BME280;25121;51.090;17.038;2023-03-19T05:06:04;100018.69;;;6.71;48.75
39405;BME280;25121;51.090;17.038;2023-03-19T05:07:29;99994.19;;;6.58;48.75
39405;BME280;25121;51.090;17.038;2023-03-19T05:08:53;100030.75;;;6.75;48.98
39405;BME280;25121;51.090;17.038;2023-03-19T05:10:17;99986.09;;;6.50;48.84
39405;BME280;25121;51.090;17.038;2023-03-19T05:11:42;99984.25;;;6.50;48.91
39405;BME280;25121;51.090;17.038;2023-03-19T05:13:14;99988.47;;;6.53;48.76
39405;BME280;25121;51.090;17.038;2023-03-19T05:14:42;99979.94;;;6.49;48.70
39405;BME280;25121;51.090;17.038;2023-03-19T05:16:28;99985.66;;;6.54;48.75
39405;BME280;25121;51.090;17.038;2023-03-19T05:17:49;100033.78;;;6.80;48.75
39405;BME280;25121;51.090;17.038;2023-03-19T05:19:13;100027.78;;;6.78;48.70
39405;BME280;25121;51.090;17.038;2023-03-19T05:20:37;100035.03;;;6.86;48.60
39405;BME280;25121;51.090;17.038;2023-03-19T05:22:03;100034.88;;;6.87;48.69
39405;BME280;25121;51.090;17.038;2023-03-19T05:23:26;100019.78;;;6.78;48.67
39405;BME280;25121;51.090;17.038;2023-03-19T05:24:57;100038.91;;;6.92;48.65
39405;BME280;25121;51.090;17.038;2023-03-19T05:26:20;100016.94;;;6.80;48.48
39405;BME280;25121;51.090;17.038;2023-03-19T05:28:01;100017.63;;;6.82;48.45
39405;BME280;25121;51.090;17.038;2023-03-19T05:29:24;100044.50;;;6.98;48.47
39405;BME280;25121;51.090;17.038;2023-03-19T05:31:10;100015.97;;;6.81;48.42
39405;BME280;25121;51.090;17.038;2023-03-19T05:32:39;100008.41;;;6.76;48.50
39405;BME280;25121;51.090;17.038;2023-03-19T05:34:10;100014.13;;;6.81;48.39
39405;BME280;25121;51.090;17.038;2023-03-19T05:35:35;100036.06;;;6.93;48.36
39405;BME280;25121;51.090;17.038;2023-03-19T05:37:19;100013.44;;;6.79;48.42
39405;BME280;25121;51.090;17.038;2023-03-19T05:38:47;100032.44;;;6.94;48.37
39405;BME280;25121;51.090;17.038;2023-03-19T05:40:16;100036.84;;;7.03;48.36
39405;BME280;25121;51.090;17.038;2023-03-19T05:41:41;100027.59;;;6.98;48.31
39405;BME280;25121;51.090;17.038;2023-03-19T05:43:04;100043.41;;;7.09;48.20
39405;BME280;25121;51.090;17.038;2023-03-19T05:44:39;99998.28;;;6.88;48.27
39405;BME280;25121;51.090;17.038;2023-03-19T05:46:21;100003.50;;;6.89;48.26
39405;BME280;25121;51.090;17.038;2023-03-19T05:47:47;99990.28;;;6.88;48.07
39405;BME280;25121;51.090;17.038;2023-03-19T05:49:12;100009.44;;;7.01;48.19
39405;BME280;25121;51.090;17.038;2023-03-19T05:50:34;100042.19;;;7.21;48.07
39405;BME280;25121;51.090;17.038;2023-03-19T05:52:06;100009.81;;;7.06;48.11
39405;BME280;25121;51.090;17.038;2023-03-19T05:53:32;100024.06;;;7.15;47.99
39405;BME280;25121;51.090;17.038;2023-03-19T05:55:14;100023.94;;;7.17;47.99
39405;BME280;25121;51.090;17.038;2023-03-19T05:56:41;100047.16;;;7.42;47.95
39405;BME280;25121;51.090;17.038;2023-03-19T05:58:33;100002.94;;;7.22;47.82
39405;BME280;25121;51.090;17.038;2023-03-19T05:59:59;100045.59;;;7.58;47.72
39405;BME280;25121;51.090;17.038;2023-03-19T06:01:30;100054.38;;;7.68;47.49
39405;BME280;25121;51.090;17.038;2023-03-19T06:03:02;100003.59;;;7.50;47.30
39405;BME280;25121;51.090;17.038;2023-03-19T06:04:33;100034.22;;;7.82;47.03
39405;BME280;25121;51.090;17.038;2023-03-19T06:06:03;100042.72;;;8.03;46.66
39405;BME280;25121;51.090;17.038;2023-03-19T06:07:56;100044.78;;;8.17;46.69
39405;BME280;25121;51.090;17.038;2023-03-19T06:09:47;100047.16;;;8.29;46.38
39405;BME280;25121;51.090;17.038;2023-03-19T06:11:13;99988.84;;;8.06;46.19
39405;BME280;25121;51.090;17.038;2023-03-19T06:12:42;99991.91;;;8.19;46.20
39405;BME280;25121;51.090;17.038;2023-03-19T06:14:43;99994.13;;;8.32;45.86
39405;BME280;25121;51.090;17.038;2023-03-19T06:16:27;100011.28;;;8.56;45.83
39405;BME280;25121;51.090;17.038;2023-03-19T06:17:58;100043.81;;;8.86;45.73
39405;BME280;25121;51.090;17.038;2023-03-19T06:19:36;100042.16;;;9.01;45.39
39405;BME280;25121;51.090;17.038;2023-03-19T06:21:02;99997.44;;;8.93;45.32
39405;BME280;25121;51.090;17.038;2023-03-19T06:22:24;100026.25;;;9.16;45.14
39405;BME280;25121;51.090;17.038;2023-03-19T06:23:47;100019.06;;;9.24;45.17
39405;BME280;25121;51.090;17.038;2023-03-19T06:25:19;100035.94;;;9.41;44.47
39405;BME280;25121;51.090;17.038;2023-03-19T06:26:44;100037.47;;;9.44;44.44
39405;BME280;25121;51.090;17.038;2023-03-19T06:28:07;100020.19;;;9.46;44.16
39405;BME280;25121;51.090;17.038;2023-03-19T06:29:35;100034.94;;;9.59;44.11
39405;BME280;25121;51.090;17.038;2023-03-19T06:31:12;100044.81;;;9.75;43.87
39405;BME280;25121;51.090;17.038;2023-03-19T06:33:01;100052.81;;;9.91;43.82
39405;BME280;25121;51.090;17.038;2023-03-19T06:34:26;100056.31;;;10.00;43.69
39405;BME280;25121;51.090;17.038;2023-03-19T06:35:56;100024.63;;;9.95;43.38
39405;BME280;25121;51.090;17.038;2023-03-19T06:37:36;100021.25;;;10.01;43.45
39405;BME280;25121;51.090;17.038;2023-03-19T06:38:59;100049.16;;;10.23;43.52
39405;BME280;25121;51.090;17.038;2023-03-19T06:40:24;100064.28;;;10.32;43.34
39405;BME280;25121;51.090;17.038;2023-03-19T06:41:46;100057.03;;;10.41;42.99
39405;BME280;25121;51.090;17.038;2023-03-19T06:43:11;100050.66;;;10.42;42.96
39405;BME280;25121;51.090;17.038;2023-03-19T06:44:33;100067.34;;;10.61;42.72
39405;BME280;25121;51.090;17.038;2023-03-19T06:45:55;100067.31;;;10.69;42.61
39405;BME280;25121;51.090;17.038;2023-03-19T06:47:18;100067.91;;;10.79;42.39
39405;BME280;25121;51.090;17.038;2023-03-19T06:48:41;100078.44;;;10.89;42.17
39405;BME280;25121;51.090;17.038;2023-03-19T06:50:05;100058.97;;;10.87;42.05
39405;BME280;25121;51.090;17.038;2023-03-19T06:51:32;100071.13;;;11.06;41.93
39405;BME280;25121;51.090;17.038;2023-03-19T06:52:54;100067.81;;;11.18;42.03
39405;BME280;25121;51.090;17.038;2023-03-19T06:54:18;100071.94;;;11.29;41.49
39405;BME280;25121;51.090;17.038;2023-03-19T06:55:40;100070.66;;;11.40;41.21
39405;BME280;25121;51.090;17.038;2023-03-19T06:57:04;100063.19;;;11.50;41.65
39405;BME280;25121;51.090;17.038;2023-03-19T06:58:26;100073.03;;;11.58;41.37
39405;BME280;25121;51.090;17.038;2023-03-19T06:59:50;100067.75;;;11.64;40.94
39405;BME280;25121;51.090;17.038;2023-03-19T07:01:11;100068.69;;;11.72;40.85
39405;BME280;25121;51.090;17.038;2023-03-19T07:02:34;100066.94;;;11.79;41.11
39405;BME280;25121;51.090;17.038;2023-03-19T07:03:56;100070.56;;;11.86;41.03
39405;BME280;25121;51.090;17.038;2023-03-19T07:05:17;100063.84;;;11.90;41.08
39405;BME280;25121;51.090;17.038;2023-03-19T07:06:41;100055.19;;;11.95;40.85
39405;BME280;25121;51.090;17.038;2023-03-19T07:08:05;100028.53;;;11.85;40.79
39405;BME280;25121;51.090;17.038;2023-03-19T07:09:31;100061.88;;;12.14;40.47
39405;BME280;25121;51.090;17.038;2023-03-19T07:10:53;100061.78;;;12.22;40.26
39405;BME280;25121;51.090;17.038;2023-03-19T07:12:18;100062.16;;;12.34;40.36
39405;BME280;25121;51.090;17.038;2023-03-19T07:13:40;100062.69;;;12.44;39.93
39405;BME280;25121;51.090;17.038;2023-03-19T07:15:03;100056.19;;;12.53;40.09
39405;BME280;25121;51.090;17.038;2023-03-19T07:16:26;100063.19;;;12.69;39.71
39405;BME280;25121;51.090;17.038;2023-03-19T07:17:47;100064.94;;;12.77;39.57
39405;BME280;25121;51.090;17.038;2023-03-19T07:19:09;100069.47;;;12.91;39.53
39405;BME280;25121;51.090;17.038;2023-03-19T07:20:32;100066.28;;;13.02;39.44
39405;BME280;25121;51.090;17.038;2023-03-19T07:21:55;100064.16;;;13.19;39.13
39405;BME280;25121;51.090;17.038;2023-03-19T07:23:18;100073.41;;;13.31;39.56
39405;BME280;25121;51.090;17.038;2023-03-19T07:24:40;100075.44;;;13.44;39.58
39405;BME280;25121;51.090;17.038;2023-03-19T07:26:02;100063.25;;;13.55;39.08
39405;BME280;25121;51.090;17.038;2023-03-19T07:27:24;100053.38;;;13.69;38.72
39405;BME280;25121;51.090;17.038;2023-03-19T07:28:46;100071.16;;;13.85;38.95
39405;BME280;25121;51.090;17.038;2023-03-19T07:30:09;100062.31;;;13.97;38.40
39405;BME280;25121;51.090;17.038;2023-03-19T07:31:31;100066.56;;;14.13;38.16
39405;BME280;25121;51.090;17.038;2023-03-19T07:32:54;100058.31;;;14.28;37.76